Time;durP1;ratioP1;P1;durP2;ratioP2;P2;SDS_P1;SDS_P2;PMS_P1;PMS_P2;Temp;Humidity;BMP_temperature;BMP_pressure;BME280_temperature;BME280_humidity;BME280_pressure;Samples;Min_cycle;Max_cycle;Signal;HPM_P1;HPM_P2
2023/12/12 00:01:23;;;;;;;0.73;0.52;;;;;;;20.77;39.27;100683.88;5078645;28;20027;-72
2023/12/12 00:03:50;;;;;;;1.02;0.57;;;;;;;20.87;39.50;100707.38;5026638;28;20414;-72
2023/12/12 00:06:16;;;;;;;0.55;0.32;;;;;;;20.88;39.35;100711.69;5080682;28;20036;-72
2023/12/12 00:08:42;;;;;;;0.75;0.57;;;;;;;20.80;39.18;100694.06;5030996;28;20110;-73
2023/12/12 00:11:07;;;;;;;1.25;0.50;;;;;;;20.76;39.48;100680.41;5074581;28;20109;-74
2023/12/12 00:13:33;;;;;;;0.45;0.30;;;;;;;20.85;39.48;100709.41;5034076;28;20036;-73
2023/12/12 00:15:58;;;;;;;1.00;0.52;;;;;;;20.88;39.25;100703.72;5079373;28;20476;-72
2023/12/12 00:18:24;;;;;;;0.93;0.70;;;;;;;20.84;39.44;100686.59;5055336;27;20029;-73
2023/12/12 00:20:50;;;;;;;0.50;0.30;;;;;;;20.76;39.50;100675.13;5068630;28;20036;-73
2023/12/12 00:23:16;;;;;;;0.70;0.50;;;;;;;20.81;39.49;100687.78;5036813;28;20035;-72
2023/12/12 00:25:41;;;;;;;0.95;0.30;;;;;;;20.83;39.37;100688.44;5081124;28;20044;-74
2023/12/12 00:28:07;;;;;;;0.30;0.20;;;;;;;20.76;39.32;100680.41;5034696;28;20040;-74
2023/12/12 00:30:32;;;;;;;0.20;0.20;;;;;;;20.60;39.50;100648.09;5085569;28;20132;-76
2023/12/12 00:32:59;;;;;;;0.52;0.40;;;;;;;20.71;39.16;100672.22;5029133;28;20055;-72
2023/12/12 00:35:24;;;;;;;0.82;0.35;;;;;;;20.61;39.34;100660.31;5088864;28;20050;-73
2023/12/12 00:37:50;;;;;;;0.77;0.75;;;;;;;20.82;39.49;100692.06;5033616;28;20072;-73
2023/12/12 00:40:15;;;;;;;0.77;0.60;;;;;;;20.77;39.42;100684.69;5084694;28;20448;-72
2023/12/12 00:42:41;;;;;;;0.45;0.45;;;;;;;20.75;39.50;100681.41;5030828;28;20044;-73
2023/12/12 00:45:07;;;;;;;0.95;0.57;;;;;;;20.78;39.35;100686.31;5082535;28;20146;-74
2023/12/12 00:47:32;;;;;;;1.02;0.80;;;;;;;20.78;39.55;100691.63;5033380;28;20534;-72
2023/12/12 00:49:58;;;;;;;0.93;0.43;;;;;;;20.74;39.54;100692.19;5091417;28;20110;-73
2023/12/12 00:52:24;;;;;;;1.17;0.45;;;;;;;20.78;39.50;100691.63;5029438;28;20040;-73
2023/12/12 00:54:50;;;;;;;0.95;0.70;;;;;;;20.72;39.44;100680.97;5082385;28;20185;-72
2023/12/12 00:57:15;;;;;;;0.40;0.30;;;;;;;20.74;39.34;100689.56;5058214;28;20048;-73
2023/12/12 00:59:41;;;;;;;0.88;0.45;;;;;;;20.75;39.31;100689.34;5075364;28;20032;-74
2023/12/12 01:02:06;;;;;;;0.52;0.52;;;;;;;20.75;39.38;100685.91;5033510;28;20792;-73
2023/12/12 01:04:34;;;;;;;0.68;0.47;;;;;;;20.75;39.53;100684.06;5072774;28;20722;-74
2023/12/12 01:07:00;;;;;;;0.60;0.43;;;;;;;20.75;39.33;100694.66;5033980;28;20055;-75
2023/12/12 01:09:25;;;;;;;0.60;0.60;;;;;;;20.55;39.41;100653.13;5079796;28;20392;-72
2023/12/12 01:11:51;;;;;;;0.40;0.30;;;;;;;20.75;39.44;100691.19;5028835;28;20082;-72
2023/12/12 01:14:16;;;;;;;0.80;0.50;;;;;;;20.73;39.26;100686.09;5080646;28;20047;-73
2023/12/12 01:16:42;;;;;;;0.80;0.43;;;;;;;20.70;39.24;100683.81;5038278;28;20028;-73
2023/12/12 01:19:07;;;;;;;0.68;0.50;;;;;;;20.71;39.30;100682.00;5090190;27;20033;-72
2023/12/12 01:21:33;;;;;;;0.63;0.30;;;;;;;20.71;39.54;100688.09;5033953;28;20037;-73
2023/12/12 01:23:58;;;;;;;0.65;0.40;;;;;;;20.71;39.26;100690.75;5082837;28;20117;-73
2023/12/12 01:26:24;;;;;;;0.63;0.63;;;;;;;20.66;39.48;100693.16;5036878;28;20028;-72
2023/12/12 01:28:50;;;;;;;0.70;0.50;;;;;;;20.72;39.47;100696.84;5080386;28;20067;-71
2023/12/12 01:31:17;;;;;;;0.43;0.38;;;;;;;20.61;39.38;100684.94;5030297;28;20986;-72
2023/12/12 01:33:46;;;;;;;0.85;0.43;;;;;;;20.62;39.40;100689.22;5069951;28;20048;-72
2023/12/12 01:36:12;;;;;;;0.80;0.57;;;;;;;20.67;39.40;100694.78;5038920;28;20043;-74
2023/12/12 01:38:38;;;;;;;0.20;0.20;;;;;;;20.67;39.28;100694.78;5082279;28;20040;-73
2023/12/12 01:41:03;;;;;;;0.50;0.32;;;;;;;20.62;39.34;100694.50;5031483;28;20031;-72
2023/12/12 01:43:30;;;;;;;0.65;0.30;;;;;;;20.67;39.33;100699.25;5082985;28;20130;-72
2023/12/12 01:46:01;;;;;;;0.43;0.43;;;;;;;20.61;39.19;100690.22;5033397;28;20345;-72
2023/12/12 01:48:28;;;;;;;0.20;0.20;;;;;;;20.62;39.43;100697.16;5077315;28;20032;-73
2023/12/12 01:50:55;;;;;;;0.30;0.30;;;;;;;20.53;39.50;100685.06;5029724;28;20040;-73
2023/12/12 01:53:25;;;;;;;0.40;0.40;;;;;;;20.63;39.42;100703.25;5078501;28;20039;-73
2023/12/12 01:55:53;;;;;;;0.52;0.52;;;;;;;20.52;39.47;100683.44;5025529;28;20453;-73
2023/12/12 01:58:20;;;;;;;0.20;0.20;;;;;;;20.62;39.61;100701.63;5033816;28;20039;-74
2023/12/12 02:00:47;;;;;;;0.40;0.20;;;;;;;20.57;39.47;100690.78;5083752;28;20131;-74
2023/12/12 02:03:14;;;;;;;0.85;0.68;;;;;;;20.51;39.28;100684.44;5026216;28;20120;-72
2023/12/12 02:05:41;;;;;;;0.82;0.40;;;;;;;20.51;39.59;100685.25;5081497;28;20470;-72
2023/12/12 02:08:07;;;;;;;0.28;0.28;;;;;;;20.49;39.33;100676.69;5033050;28;20083;-74
2023/12/12 02:10:34;;;;;;;1.00;0.43;;;;;;;20.56;39.53;100686.50;5081238;28;20035;-73
2023/12/12 02:13:00;;;;;;;0.93;0.63;;;;;;;20.54;39.45;100680.59;5020855;28;20461;-73
2023/12/12 02:15:25;;;;;;;0.80;0.60;;;;;;;20.59;39.33;100683.50;5085491;28;20077;-72
2023/12/12 02:17:51;;;;;;;0.65;0.50;;;;;;;20.57;39.61;100694.25;5022065;28;20062;-73
2023/12/12 02:20:17;;;;;;;0.50;0.50;;;;;;;20.52;39.54;100692.19;5080514;28;20368;-74
2023/12/12 02:22:45;;;;;;;0.70;0.50;;;;;;;20.46;39.21;100684.16;5030115;28;20039;-74
2023/12/12 02:25:11;;;;;;;0.52;0.50;;;;;;;20.53;39.67;100698.28;5078950;28;20040;-74
2023/12/12 02:27:37;;;;;;;0.90;0.63;;;;;;;20.47;39.27;100686.66;5035398;28;20353;-73
2023/12/12 02:30:06;;;;;;;0.40;0.40;;;;;;;20.54;39.50;100702.56;5081290;28;20036;-72
2023/12/12 02:32:31;;;;;;;0.63;0.40;;;;;;;20.52;39.50;100710.69;5031428;28;22141;-72
2023/12/12 02:34:57;;;;;;;0.60;0.35;;;;;;;20.47;39.43;100691.94;5078657;28;20069;-73
2023/12/12 02:37:22;;;;;;;0.68;0.57;;;;;;;20.51;39.44;100697.66;5023363;28;20040;-72
2023/12/12 02:39:48;;;;;;;0.38;0.30;;;;;;;20.50;39.37;100699.50;5082205;28;20043;-73
2023/12/12 02:42:13;;;;;;;1.27;0.70;;;;;;;20.49;39.53;100702.31;5035464;28;21290;-74
2023/12/12 02:48:33;;;;;;;0.75;0.38;;;;;;;20.50;39.30;100706.59;5032086;28;20209;-73
2023/12/12 02:51:31;;;;;;;0.70;0.57;;;;;;;20.46;39.36;100706.13;5085483;28;20129;-72
2023/12/12 02:53:57;;;;;;;1.02;0.40;;;;;;;20.48;39.35;100708.63;5016582;28;20127;-73
2023/12/12 02:56:22;;;;;;;0.43;0.43;;;;;;;20.46;39.51;100714.06;5086098;28;20039;-73
2023/12/12 02:58:48;;;;;;;0.63;0.50;;;;;;;20.36;39.48;100691.56;5034433;28;20043;-74
2023/12/12 03:01:14;;;;;;;0.30;0.20;;;;;;;20.40;39.31;100695.47;5078517;28;20036;-72
2023/12/12 03:03:39;;;;;;;0.30;0.30;;;;;;;20.43;39.42;100695.94;5040738;28;20047;-74
2023/12/12 03:06:07;;;;;;;0.30;0.20;;;;;;;20.45;39.48;100698.38;5070891;28;20073;-74
2023/12/12 03:08:32;;;;;;;1.38;0.70;;;;;;;20.39;39.59;100707.88;5086498;28;20058;-75
2023/12/12 03:10:58;;;;;;;0.30;0.30;;;;;;;20.40;39.46;100693.63;5031326;28;21518;-72
2023/12/12 03:13:23;;;;;;;0.15;0.15;;;;;;;20.43;39.34;100701.22;5086323;28;20035;-72
2023/12/12 03:15:49;;;;;;;0.20;0.20;;;;;;;20.43;39.50;100705.69;5036566;28;20677;-72
2023/12/12 03:18:14;;;;;;;0.30;0.30;;;;;;;20.37;39.19;100701.94;5076681;28;20036;-72
2023/12/12 03:20:40;;;;;;;0.30;0.30;;;;;;;20.36;39.48;100695.03;5048968;28;20031;-74
2023/12/12 03:23:06;;;;;;;0.60;0.35;;;;;;;20.42;39.53;100704.06;5051391;28;20031;-73
2023/12/12 03:25:32;;;;;;;0.57;0.50;;;;;;;20.41;39.41;100713.00;5069387;28;20040;-73
2023/12/12 03:27:57;;;;;;;0.40;0.40;;;;;;;20.41;39.65;100713.81;5046126;28;20051;-74
2023/12/12 03:30:23;;;;;;;0.65;0.40;;;;;;;20.35;39.60;100703.16;5080841;28;20039;-72
2023/12/12 03:32:48;;;;;;;0.40;0.40;;;;;;;20.34;39.68;100707.63;5028991;28;20382;-72
2023/12/12 03:35:14;;;;;;;0.30;0.28;;;;;;;20.38;39.53;100700.13;5084228;28;20036;-74
2023/12/12 03:37:39;;;;;;;0.85;0.60;;;;;;;20.38;39.56;100700.94;5029491;28;20465;-74
2023/12/12 03:40:05;;;;;;;0.88;0.50;;;;;;;20.40;39.33;100696.28;5077147;28;20036;-73
2023/12/12 03:42:31;;;;;;;0.40;0.40;;;;;;;20.39;39.42;100696.47;5025968;28;20068;-72
2023/12/12 03:44:56;;;;;;;0.45;0.35;;;;;;;20.31;39.45;100683.38;5086914;28;20024;-74
2023/12/12 03:47:22;;;;;;;0.65;0.25;;;;;;;20.36;39.30;100689.72;5032670;28;20439;-74
2023/12/12 03:49:47;;;;;;;0.82;0.50;;;;;;;20.36;39.82;100689.72;5087469;28;20047;-73
2023/12/12 03:52:13;;;;;;;0.50;0.40;;;;;;;20.36;39.48;100694.22;5031397;28;20522;-72
2023/12/12 03:54:38;;;;;;;0.25;0.25;;;;;;;20.30;39.49;100674.63;5084739;28;20073;-73
2023/12/12 03:57:04;;;;;;;0.40;0.40;;;;;;;20.32;39.25;100679.72;5032149;28;20039;-74
2023/12/12 03:59:29;;;;;;;0.80;0.35;;;;;;;20.30;39.21;100679.09;5081616;28;20426;-72
2023/12/12 04:01:55;;;;;;;0.47;0.40;;;;;;;20.35;39.30;100684.63;5031433;28;20043;-72
2023/12/12 04:04:21;;;;;;;0.70;0.45;;;;;;;20.34;39.38;100677.72;5084490;28;20044;-73
2023/12/12 04:06:48;;;;;;;0.25;0.15;;;;;;;20.37;39.38;100686.09;5031670;28;20052;-72
2023/12/12 04:09:15;;;;;;;0.65;0.45;;;;;;;20.31;39.25;100678.91;5075831;28;20035;-72
2023/12/12 04:11:40;;;;;;;0.88;0.47;;;;;;;20.36;39.31;100675.69;5084728;28;20067;-73
2023/12/12 04:14:06;;;;;;;0.65;0.38;;;;;;;20.35;39.37;100680.16;5035982;28;20364;-72
2023/12/12 04:16:31;;;;;;;0.28;0.28;;;;;;;20.28;39.42;100666.03;5111126;27;20039;-72
2023/12/12 04:18:57;;;;;;;0.35;0.25;;;;;;;20.30;39.42;100671.97;5029979;28;20051;-72
2023/12/12 04:21:23;;;;;;;1.17;0.47;;;;;;;20.32;39.46;100672.59;5084690;28;20039;-72
2023/12/12 04:23:48;;;;;;;0.63;0.45;;;;;;;20.30;39.50;100674.63;5036309;28;20039;-73
2023/12/12 04:26:14;;;;;;;0.22;0.22;;;;;;;20.09;39.38;100640.19;5070017;28;20508;-73
2023/12/12 04:28:39;;;;;;;0.70;0.47;;;;;;;20.18;39.42;100654.94;5040072;28;20047;-73
2023/12/12 04:31:05;;;;;;;0.17;0.17;;;;;;;20.33;39.50;100681.34;5086866;28;20036;-72
2023/12/12 04:33:30;;;;;;;0.57;0.38;;;;;;;20.25;39.48;100674.34;5036324;28;20130;-71
2023/12/12 04:35:56;;;;;;;0.77;0.55;;;;;;;20.30;39.46;100682.56;5076847;28;20457;-72
2023/12/12 04:38:22;;;;;;;0.73;0.32;;;;;;;20.30;39.54;100677.25;5022823;28;20113;-74
2023/12/12 04:40:47;;;;;;;0.43;0.43;;;;;;;20.31;39.45;100686.03;5079779;28;20047;-73
2023/12/12 04:43:13;;;;;;;0.45;0.28;;;;;;;20.30;39.54;100685.19;5034703;28;20051;-72
2023/12/12 04:45:38;;;;;;;0.50;0.35;;;;;;;20.25;39.42;100673.53;5085209;28;20039;-72
2023/12/12 04:48:05;;;;;;;0.20;0.13;;;;;;;20.26;39.41;100685.72;5029102;28;20060;-73
2023/12/12 04:50:30;;;;;;;0.30;0.30;;;;;;;20.28;39.46;100686.38;5069247;28;20452;-74
2023/12/12 04:52:56;;;;;;;0.38;0.30;;;;;;;20.30;39.41;100679.09;5017663;28;20047;-72
2023/12/12 04:55:21;;;;;;;0.40;0.38;;;;;;;20.29;39.45;100680.91;5081416;28;20032;-71
2023/12/12 04:57:47;;;;;;;0.77;0.47;;;;;;;20.27;39.49;100679.44;5033963;28;20028;-73
2023/12/12 05:00:13;;;;;;;1.48;0.50;;;;;;;20.27;39.48;100674.16;5077187;28;20043;-72
2023/12/12 05:02:42;;;;;;;0.30;0.30;;;;;;;20.16;39.38;100657.78;5031686;28;20590;-72
2023/12/12 05:05:08;;;;;;;0.85;0.57;;;;;;;20.28;39.59;100678.44;5080721;28;20156;-72
2023/12/12 05:07:34;;;;;;;0.52;0.47;;;;;;;20.27;39.44;100679.44;5035272;28;20872;-72
2023/12/12 05:10:00;;;;;;;0.50;0.40;;;;;;;20.18;39.48;100668.97;5064312;28;20476;-72
2023/12/12 05:12:25;;;;;;;0.57;0.45;;;;;;;20.22;39.42;100666.78;5090389;28;20035;-72
2023/12/12 05:14:52;;;;;;;0.40;0.40;;;;;;;20.23;39.40;100677.16;5073495;27;20040;-73
2023/12/12 05:17:17;;;;;;;0.52;0.47;;;;;;;20.29;39.48;100682.72;5036012;28;20042;-72
2023/12/12 05:19:43;;;;;;;0.30;0.30;;;;;;;20.29;39.48;100674.78;5080547;28;20039;-71
2023/12/12 05:22:08;;;;;;;0.57;0.35;;;;;;;20.21;39.44;100657.22;5030702;28;20048;-72
2023/12/12 05:24:34;;;;;;;0.65;0.40;;;;;;;20.26;39.44;100668.03;5078341;28;20043;-76
2023/12/12 05:27:00;;;;;;;0.57;0.28;;;;;;;20.26;39.57;100656.66;5034887;28;20440;-73
2023/12/12 05:29:25;;;;;;;0.30;0.30;;;;;;;20.26;39.52;100664.59;5081210;28;20044;-73
2023/12/12 05:31:50;;;;;;;0.75;0.35;;;;;;;20.23;39.48;100650.72;5028702;28;20032;-73
2023/12/12 05:34:16;;;;;;;0.47;0.40;;;;;;;20.17;39.68;100637.44;5084445;28;20468;-73
2023/12/12 05:36:42;;;;;;;0.50;0.38;;;;;;;20.27;39.55;100658.28;5037218;28;20040;-73
2023/12/12 05:39:09;;;;;;;0.47;0.40;;;;;;;20.28;39.40;100670.50;5079994;28;20427;-76
2023/12/12 05:41:35;;;;;;;0.57;0.55;;;;;;;20.25;39.27;100663.75;5028775;28;20051;-71
2023/12/12 05:44:01;;;;;;;0.35;0.30;;;;;;;20.22;39.51;100664.97;5079408;28;20039;-73
2023/12/12 05:46:26;;;;;;;0.30;0.30;;;;;;;20.16;39.40;100655.13;5029387;28;20063;-73
2023/12/12 05:48:52;;;;;;;0.30;0.30;;;;;;;20.26;39.62;100669.88;5089013;28;20039;-75
2023/12/12 05:51:17;;;;;;;0.32;0.32;;;;;;;19.91;39.48;100616.78;5032626;28;20058;-73
2023/12/12 05:53:43;;;;;;;0.20;0.20;;;;;;;20.23;39.55;100666.59;5087248;28;20086;-73
2023/12/12 05:56:09;;;;;;;0.47;0.47;;;;;;;20.15;39.63;100642.94;5028036;28;20055;-74
2023/12/12 05:58:34;;;;;;;0.50;0.50;;;;;;;20.06;39.53;100637.91;5075014;28;20055;-71
2023/12/12 06:01:00;;;;;;;0.50;0.50;;;;;;;20.18;39.50;100655.75;5037786;28;20047;-73
2023/12/12 06:03:25;;;;;;;0.35;0.35;;;;;;;20.22;39.81;100661.50;5081130;28;20636;-75
2023/12/12 06:05:51;;;;;;;0.45;0.45;;;;;;;20.19;39.60;100667.97;5031410;28;20059;-74
2023/12/12 06:08:16;;;;;;;0.38;0.38;;;;;;;20.14;39.56;100645.75;5083048;28;20377;-73
2023/12/12 06:10:42;;;;;;;0.50;0.43;;;;;;;20.17;39.41;100645.38;5028018;28;20047;-75
2023/12/12 06:13:08;;;;;;;0.40;0.40;;;;;;;20.08;39.52;100631.44;5085421;28;20051;-73
2023/12/12 06:15:33;;;;;;;0.47;0.47;;;;;;;20.22;39.63;100659.66;5068536;28;20325;-74
2023/12/12 06:17:59;;;;;;;0.47;0.32;;;;;;;20.21;39.58;100665.97;5079737;28;20077;-74
2023/12/12 06:20:26;;;;;;;0.88;0.52;;;;;;;20.17;39.63;100648.84;5036419;28;20091;-74
2023/12/12 06:22:51;;;;;;;0.93;0.45;;;;;;;20.22;39.65;100653.56;5077858;28;20036;-73
2023/12/12 06:25:17;;;;;;;0.50;0.50;;;;;;;20.20;39.48;100650.28;5040130;28;20040;-75
2023/12/12 06:27:42;;;;;;;0.57;0.50;;;;;;;20.17;39.59;100648.03;5078416;28;20039;-73
2023/12/12 06:30:09;;;;;;;0.47;0.40;;;;;;;20.20;39.66;100653.75;5033956;28;20739;-73
2023/12/12 06:32:34;;;;;;;0.55;0.55;;;;;;;20.20;39.54;100656.41;5085507;28;20047;-73
2023/12/12 06:35:00;;;;;;;0.60;0.60;;;;;;;20.13;39.58;100658.16;5035315;28;20043;-71
2023/12/12 06:37:25;;;;;;;0.20;0.20;;;;;;;20.18;39.67;100658.41;5087140;28;20025;-75
2023/12/12 06:39:52;;;;;;;0.93;0.60;;;;;;;20.23;39.58;100663.13;5051111;28;20051;-71
2023/12/12 06:42:17;;;;;;;0.60;0.52;;;;;;;20.22;39.74;100657.03;5077060;28;20475;-75
2023/12/12 06:44:43;;;;;;;0.30;0.30;;;;;;;20.14;39.61;100648.41;5070240;28;20044;-75
2023/12/12 06:47:09;;;;;;;1.00;0.60;;;;;;;20.23;39.61;100656.03;5055519;28;20068;-73
2023/12/12 06:49:35;;;;;;;1.48;0.55;;;;;;;20.23;39.59;100657.84;5078284;28;20048;-72
2023/12/12 06:52:01;;;;;;;0.35;0.35;;;;;;;20.17;39.46;100632.97;5029104;28;20064;-74
2023/12/12 06:54:27;;;;;;;0.35;0.35;;;;;;;20.13;39.73;100634.38;5084565;28;20040;-71
2023/12/12 06:56:52;;;;;;;0.30;0.30;;;;;;;20.22;39.61;100641.16;5029975;28;20314;-73
2023/12/12 06:59:18;;;;;;;0.45;0.40;;;;;;;20.22;39.73;100646.44;5082459;28;20055;-72
2023/12/12 07:01:43;;;;;;;1.00;0.30;;;;;;;20.15;39.63;100631.53;5026719;28;20048;-71
2023/12/12 07:04:09;;;;;;;0.57;0.28;;;;;;;20.23;39.66;100641.97;5092020;28;20596;-72
2023/12/12 07:06:34;;;;;;;0.75;0.50;;;;;;;20.20;39.70;100640.53;5033838;28;20345;-70
2023/12/12 07:09:00;;;;;;;0.45;0.45;;;;;;;20.19;39.62;100636.25;5087472;28;20059;-76
2023/12/12 07:11:25;;;;;;;0.32;0.32;;;;;;;20.22;39.59;100643.00;5038529;28;20390;-73
2023/12/12 07:13:51;;;;;;;0.25;0.25;;;;;;;20.12;39.25;100624.78;5080858;28;20100;-72
2023/12/12 07:16:17;;;;;;;0.22;0.22;;;;;;;20.11;39.57;100611.78;5031029;28;20032;-73
2023/12/12 07:18:42;;;;;;;0.55;0.55;;;;;;;20.24;39.65;100643.63;5081491;28;20097;-73
2023/12/12 07:21:08;;;;;;;0.45;0.40;;;;;;;20.22;39.43;100640.34;5012989;28;20041;-75
2023/12/12 07:23:34;;;;;;;0.32;0.32;;;;;;;20.05;39.60;100620.41;5077376;28;20032;-72
2023/12/12 07:26:00;;;;;;;1.27;0.63;;;;;;;20.22;39.56;100649.09;5023220;28;20143;-73
2023/12/12 07:28:27;;;;;;;0.60;0.60;;;;;;;20.20;39.51;100645.00;5093075;28;20074;-74
2023/12/12 07:30:53;;;;;;;0.50;0.40;;;;;;;20.21;39.62;100644.81;5035841;28;20489;-73
2023/12/12 07:33:19;;;;;;;0.35;0.35;;;;;;;20.19;39.58;100643.38;5077570;28;20040;-71
2023/12/12 07:35:45;;;;;;;0.40;0.40;;;;;;;20.23;39.44;100663.13;5034562;28;21211;-73
2023/12/12 07:38:10;;;;;;;0.40;0.40;;;;;;;20.27;39.52;100653.00;5089095;28;20040;-74
2023/12/12 07:40:36;;;;;;;0.57;0.38;;;;;;;20.23;39.63;100649.91;5034554;28;20043;-73
2023/12/12 07:43:01;;;;;;;0.30;0.30;;;;;;;20.22;39.53;100645.63;5087476;28;20078;-72
2023/12/12 07:45:27;;;;;;;0.38;0.38;;;;;;;20.17;39.56;100638.25;5045589;28;20463;-72
2023/12/12 07:47:53;;;;;;;0.47;0.30;;;;;;;20.22;39.54;100640.34;5074052;28;20039;-75
2023/12/12 07:50:18;;;;;;;0.30;0.30;;;;;;;20.24;39.58;100638.31;5057587;28;20115;-75
2023/12/12 07:52:44;;;;;;;0.52;0.50;;;;;;;20.28;39.48;100634.28;5051090;28;20866;-74
2023/12/12 07:55:10;;;;;;;0.50;0.50;;;;;;;20.17;39.51;100611.84;5068922;28;20584;-73
2023/12/12 07:57:36;;;;;;;0.20;0.20;;;;;;;20.29;39.48;100632.47;5059831;27;20036;-71
2023/12/12 08:00:06;;;;;;;0.50;0.50;;;;;;;20.30;39.50;100637.59;5086142;28;20693;-73
2023/12/12 08:02:36;;;;;;;0.30;0.30;;;;;;;20.22;39.50;100622.66;5036024;28;20050;-74
2023/12/12 08:05:03;;;;;;;0.65;0.50;;;;;;;20.31;39.37;100631.31;5089691;28;20036;-75
2023/12/12 08:07:29;;;;;;;0.35;0.35;;;;;;;20.34;39.40;100630.09;5026880;28;20052;-73
2023/12/12 08:09:55;;;;;;;0.40;0.40;;;;;;;20.22;39.60;100625.31;5077248;28;20535;-73
2023/12/12 08:12:23;;;;;;;0.40;0.40;;;;;;;20.32;39.40;100627.66;5033694;28;20033;-77
2023/12/12 08:14:49;;;;;;;0.30;0.30;;;;;;;20.29;39.50;100622.75;5080750;28;20028;-78
2023/12/12 08:17:15;;;;;;;0.40;0.40;;;;;;;20.31;39.45;100626.00;5025592;28;20039;-74
2023/12/12 08:19:40;;;;;;;0.45;0.45;;;;;;;20.36;39.41;100630.72;5078870;28;20068;-73
2023/12/12 08:22:06;;;;;;;0.40;0.40;;;;;;;20.31;39.44;100628.66;5028059;28;20044;-72
2023/12/12 08:24:31;;;;;;;0.57;0.57;;;;;;;20.32;39.47;100632.94;5084160;28;20036;-72
2023/12/12 08:26:57;;;;;;;0.70;0.65;;;;;;;20.34;39.39;100633.56;5035795;28;20101;-74
2023/12/12 08:29:23;;;;;;;0.50;0.50;;;;;;;20.38;39.34;100626.88;5082625;28;20442;-74
2023/12/12 08:31:48;;;;;;;0.75;0.30;;;;;;;20.37;39.21;100619.16;5042950;28;20114;-74
2023/12/12 08:34:14;;;;;;;0.70;0.60;;;;;;;20.41;39.31;100626.53;5076887;28;20599;-74
2023/12/12 08:36:40;;;;;;;0.30;0.30;;;;;;;20.38;39.27;100620.78;5035668;28;20080;-71
2023/12/12 08:39:07;;;;;;;0.98;0.63;;;;;;;20.42;39.10;100628.19;5083258;28;20372;-74
2023/12/12 08:41:32;;;;;;;0.60;0.60;;;;;;;20.40;39.31;100621.41;5028104;28;20505;-74
2023/12/12 08:43:59;;;;;;;0.57;0.57;;;;;;;20.33;39.35;100607.31;5079169;28;20043;-77
2023/12/12 08:46:26;;;;;;;0.40;0.40;;;;;;;20.38;39.33;100618.97;5036393;28;20044;-78
2023/12/12 08:48:55;;;;;;;1.65;0.40;;;;;;;20.38;39.26;100616.31;5093223;28;20773;-77
2023/12/12 08:51:22;;;;;;;0.65;0.63;;;;;;;20.38;39.43;100613.66;5023742;28;20425;-72
2023/12/12 08:53:48;;;;;;;0.50;0.50;;;;;;;20.35;39.35;100616.69;5090664;28;20074;-71
2023/12/12 08:56:16;;;;;;;0.60;0.57;;;;;;;20.40;39.17;100621.41;5030682;28;20040;-74
2023/12/12 08:58:46;;;;;;;1.05;0.80;;;;;;;20.37;39.41;100606.75;5080929;28;20047;-73
2023/12/12 09:01:11;;;;;;;;;;;;;;;20.39;39.35;100610.00;5041801;28;20043;-74
2023/12/12 09:03:37;;;;;;;0.70;0.70;;;;;;;20.39;39.38;100609.19;5083476;28;19931;-73
2023/12/12 09:06:03;;;;;;;0.90;0.60;;;;;;;20.38;39.33;100607.56;5030677;28;20387;-73
2023/12/12 09:08:29;;;;;;;0.77;0.70;;;;;;;20.40;39.27;100605.53;5094954;28;20772;-72
2023/12/12 09:10:55;;;;;;;0.73;0.55;;;;;;;20.39;39.28;100604.72;5037273;28;20028;-73
2023/12/12 09:13:20;;;;;;;0.80;0.73;;;;;;;20.36;39.26;100602.47;5081606;28;20067;-73
2023/12/12 09:15:46;;;;;;;0.50;0.50;;;;;;;20.35;39.26;100598.19;5032427;28;20877;-73
2023/12/12 09:18:11;;;;;;;0.80;0.70;;;;;;;20.41;39.26;100610.66;5083314;28;20562;-72
2023/12/12 09:20:37;;;;;;;0.30;0.30;;;;;;;20.41;39.32;100615.97;5029647;28;21038;-76
2023/12/12 09:23:02;;;;;;;0.60;0.60;;;;;;;20.37;39.13;100608.56;5087213;28;20051;-73
2023/12/12 09:25:28;;;;;;;0.68;0.68;;;;;;;20.35;39.33;100607.94;5040414;28;20480;-73
2023/12/12 09:27:54;;;;;;;0.80;0.80;;;;;;;20.33;39.40;100599.38;5069926;28;20471;-72
2023/12/12 09:30:20;;;;;;;0.55;0.50;;;;;;;20.38;39.20;100608.38;5066895;28;20036;-71
2023/12/12 09:32:45;;;;;;;0.60;0.60;;;;;;;20.40;39.35;100609.00;5036078;28;20039;-74
2023/12/12 09:35:11;;;;;;;0.47;0.47;;;;;;;20.39;39.28;100609.19;5078360;28;20040;-75
2023/12/12 09:37:36;;;;;;;0.77;0.65;;;;;;;20.37;39.42;100605.94;5032883;28;20091;-74
2023/12/12 09:40:05;;;;;;;0.85;0.60;;;;;;;20.36;39.22;100591.88;5080129;28;20036;-73
2023/12/12 09:42:34;;;;;;;0.63;0.63;;;;;;;20.38;39.24;100589.88;5037924;28;20115;-75
2023/12/12 09:45:00;;;;;;;0.45;0.40;;;;;;;20.49;39.03;100578.00;5067106;28;20056;-72
2023/12/12 09:47:30;;;;;;;0.70;0.65;;;;;;;20.78;38.58;100580.47;5020067;28;20028;-71
2023/12/12 09:49:58;;;;;;;0.70;0.70;;;;;;;21.00;38.22;100578.59;5082617;28;20058;-75
2023/12/12 09:52:29;;;;;;;0.40;0.40;;;;;;;20.99;38.29;100573.50;5031780;28;20064;-72
2023/12/12 09:54:58;;;;;;;0.50;0.50;;;;;;;20.99;38.24;100576.13;5081842;28;20036;-73
2023/12/12 09:57:25;;;;;;;0.40;0.40;;;;;;;20.94;38.27;100584.66;5029014;28;20036;-72
2023/12/12 09:59:51;;;;;;;0.52;0.50;;;;;;;20.91;38.81;100571.81;5075178;28;20044;-72
2023/12/12 10:02:33;;;;;;;0.52;0.52;;;;;;;20.90;38.65;100569.38;5034366;28;20050;-75
2023/12/12 10:04:59;;;;;;;0.73;0.73;;;;;;;20.80;38.57;100561.75;5086860;28;20147;-72
2023/12/12 10:07:26;;;;;;;0.60;0.60;;;;;;;20.81;38.76;100556.28;5028608;28;20040;-72
2023/12/12 10:09:52;;;;;;;0.60;0.60;;;;;;;20.77;38.75;100551.56;5085544;28;20437;-73
2023/12/12 10:12:18;;;;;;;0.90;0.68;;;;;;;20.76;38.96;100545.44;5037217;28;20449;-72
2023/12/12 10:14:49;;;;;;;0.70;0.70;;;;;;;20.68;39.01;100536.84;5061760;28;20118;-72
2023/12/12 10:17:15;;;;;;;0.50;0.50;;;;;;;20.63;38.89;100523.34;5078728;28;20042;-71
2023/12/12 10:19:41;;;;;;;0.65;0.65;;;;;;;20.62;38.85;100514.59;5027452;28;20036;-72
2023/12/12 10:22:08;;;;;;;1.13;1.02;;;;;;;20.71;39.29;100533.81;5080189;28;20821;-72
2023/12/12 10:24:35;;;;;;;0.68;0.68;;;;;;;20.69;39.03;100526.06;5024025;28;20392;-71
2023/12/12 10:27:04;;;;;;;0.50;0.50;;;;;;;20.72;38.90;100527.50;5084224;28;20115;-73
2023/12/12 10:29:33;;;;;;;0.52;0.52;;;;;;;20.65;38.93;100510.78;5029935;28;20044;-72
2023/12/12 10:31:59;;;;;;;0.52;0.52;;;;;;;20.65;38.91;100522.19;5084471;28;20469;-74
2023/12/12 10:34:28;;;;;;;0.70;0.70;;;;;;;20.60;38.98;100503.41;5024868;28;20123;-72
2023/12/12 10:36:57;;;;;;;0.77;0.77;;;;;;;20.65;39.17;100506.31;5085183;28;20039;-72
2023/12/12 10:39:22;;;;;;;0.70;0.70;;;;;;;20.45;38.98;100474.38;5028070;28;20052;-72
2023/12/12 10:41:52;;;;;;;0.65;0.55;;;;;;;20.63;38.85;100494.25;5080343;28;20084;-75
2023/12/12 10:44:29;;;;;;;0.52;0.52;;;;;;;20.61;38.93;100489.16;5034840;28;20055;-72
2023/12/12 10:46:55;;;;;;;0.80;0.80;;;;;;;20.58;38.98;100473.69;5078091;28;20256;-72
2023/12/12 10:49:24;;;;;;;0.57;0.57;;;;;;;20.64;38.92;100480.03;5030946;28;20054;-72
2023/12/12 10:51:50;;;;;;;1.27;0.90;;;;;;;20.56;39.01;100475.72;5080298;28;20040;-73
2023/12/12 10:54:17;;;;;;;0.70;0.70;;;;;;;20.62;39.05;100474.91;5034943;28;20039;-76
2023/12/12 10:56:46;;;;;;;0.55;0.55;;;;;;;20.61;38.96;100472.47;5081814;28;20538;-73
2023/12/12 10:59:16;;;;;;;0.60;0.60;;;;;;;20.62;39.01;100471.47;5029991;28;20031;-73
2023/12/12 11:01:44;;;;;;;;;;;;;;;20.60;39.07;100469.00;5087634;28;20028;-72
2023/12/12 11:04:11;;;;;;;0.68;0.60;;;;;;;20.58;39.06;100468.38;5030387;28;19954;-74
2023/12/12 11:06:37;;;;;;;0.98;0.88;;;;;;;20.59;39.08;100467.38;5082231;28;20047;-73
2023/12/12 11:09:04;;;;;;;0.80;0.80;;;;;;;20.49;39.00;100443.09;5034433;28;20189;-75
2023/12/12 11:11:30;;;;;;;0.75;0.75;;;;;;;20.61;39.16;100452.13;5063475;28;20039;-73
2023/12/12 11:13:56;;;;;;;1.02;0.90;;;;;;;20.58;39.06;100441.94;5034563;28;20105;-71
2023/12/12 11:16:21;;;;;;;0.70;0.70;;;;;;;20.57;39.04;100437.66;5084776;28;20040;-75
2023/12/12 11:18:48;;;;;;;0.50;0.50;;;;;;;20.43;38.99;100404.19;5026281;28;20086;-75
2023/12/12 11:21:45;;;;;;;0.73;0.73;;;;;;;20.59;39.12;100432.16;5066175;28;20093;-76
2023/12/12 11:24:21;;;;;;;0.70;0.70;;;;;;;20.58;38.88;100428.72;5082029;28;20456;-75
2023/12/12 11:26:47;;;;;;;0.65;0.55;;;;;;;20.58;39.07;100420.78;5037697;28;20110;-73